Time;durP1;ratioP1;P1;durP2;ratioP2;P2;SDS_P1;SDS_P2;PMS_P1;PMS_P2;Temp;Humidity;BMP_temperature;BMP_pressure;BME280_temperature;BME280_humidity;BME280_pressure;Samples;Min_cycle;Max_cycle;Signal;HPM_P1;HPM_P2
2022/09/19 00:01:10;;;;;;;1.77;1.20;;;13.80;59.30;;;;;;5032685;28;20479;-85
2022/09/19 00:03:38;;;;;;;2.50;1.20;;;13.50;59.30;;;;;;5040232;28;20461;-84
2022/09/19 00:06:06;;;;;;;2.10;0.90;;;13.30;60.30;;;;;;5025540;28;20461;-85
2022/09/19 00:08:33;;;;;;;1.87;1.20;;;13.00;60.00;;;;;;5033132;28;20834;-85
2022/09/19 00:11:03;;;;;;;1.20;1.07;;;13.00;61.60;;;;;;5035199;28;21007;-84
2022/09/19 00:13:30;;;;;;;3.87;1.00;;;13.10;61.90;;;;;;5018822;28;20455;-84
2022/09/19 00:15:57;;;;;;;1.37;0.93;;;13.10;61.50;;;;;;5031607;28;20441;-84
2022/09/19 00:18:25;;;;;;;1.13;1.00;;;13.30;61.00;;;;;;5049895;28;21188;-87
2022/09/19 00:20:52;;;;;;;1.63;1.53;;;13.30;61.10;;;;;;5033983;28;20495;-84
2022/09/19 00:26:07;;;;;;;1.03;0.80;;;13.30;60.90;;;;;;5031052;28;20492;-85
2022/09/19 00:28:35;;;;;;;1.87;0.97;;;13.30;60.60;;;;;;5049105;28;20958;-85
2022/09/19 00:31:02;;;;;;;1.20;1.00;;;13.40;60.60;;;;;;5035450;28;20938;-84
2022/09/19 00:33:32;;;;;;;1.53;1.10;;;13.20;60.50;;;;;;5033905;28;20453;-84
2022/09/19 00:36:02;;;;;;;2.30;0.90;;;13.20;61.40;;;;;;5009397;28;20880;-85
2022/09/19 00:38:30;;;;;;;1.20;0.87;;;13.20;61.70;;;;;;5031630;28;20971;-85
2022/09/19 00:40:58;;;;;;;2.73;1.00;;;13.00;61.50;;;;;;5024278;28;20483;-85
2022/09/19 00:43:48;;;;;;;8.17;1.20;;;12.80;62.60;;;;;;5031685;28;20835;-84
2022/09/19 00:46:16;;;;;;;1.00;0.80;;;12.60;62.40;;;;;;5033880;28;21163;-85
2022/09/19 00:48:45;;;;;;;1.93;1.10;;;12.70;62.80;;;;;;5053577;28;20464;-84
2022/09/19 00:51:17;;;;;;;1.30;0.80;;;12.60;63.40;;;;;;5049531;28;20515;-85
2022/09/19 00:53:46;;;;;;;1.43;1.10;;;12.60;63.60;;;;;;5037048;28;20548;-86
2022/09/19 00:56:15;;;;;;;1.50;1.13;;;12.60;64.10;;;;;;5033677;28;20453;-84
2022/09/19 00:58:45;;;;;;;1.20;1.10;;;12.60;64.20;;;;;;5051301;28;20984;-85
2022/09/19 01:01:14;;;;;;;6.23;1.67;;;12.40;64.40;;;;;;5033422;28;20972;-86
2022/09/19 01:03:42;;;;;;;2.17;1.40;;;12.50;64.80;;;;;;5032657;28;21899;-85
2022/09/19 01:06:23;;;;;;;2.70;2.40;;;12.60;64.40;;;;;;5028006;28;20862;-85
2022/09/19 01:09:36;;;;;;;1.20;1.10;;;12.50;64.10;;;;;;5035312;28;20457;-84
2022/09/19 01:12:26;;;;;;;1.67;1.13;;;12.50;64.40;;;;;;5022095;28;21160;-87
2022/09/19 01:15:19;;;;;;;1.43;1.10;;;12.40;65.00;;;;;;5024859;28;20495;-85
2022/09/19 01:17:48;;;;;;;2.30;1.10;;;12.70;64.60;;;;;;5033600;28;20454;-85
2022/09/19 01:20:36;;;;;;;1.43;1.10;;;12.90;63.60;;;;;;5026305;28;20460;-85
2022/09/19 01:23:24;;;;;;;1.53;1.40;;;12.70;62.60;;;;;;5020442;28;20460;-86
2022/09/19 01:26:03;;;;;;;5.87;1.40;;;12.70;63.90;;;;;;5013834;28;20469;-84
2022/09/19 01:28:35;;;;;;;1.53;1.30;;;12.70;64.30;;;;;;4999509;28;20456;-85
2022/09/19 01:31:21;;;;;;;3.60;2.03;;;12.70;63.70;;;;;;5024592;28;20452;-86
2022/09/19 01:33:55;;;;;;;2.37;1.73;;;12.80;64.10;;;;;;5022122;28;20457;-87
2022/09/19 01:36:26;;;;;;;5.27;1.40;;;12.90;63.60;;;;;;5031530;28;20448;-85
2022/09/19 01:38:57;;;;;;;2.60;1.20;;;12.60;64.00;;;;;;5025869;28;20441;-84
2022/09/19 01:41:28;;;;;;;5.10;1.30;;;12.70;64.80;;;;;;5031939;28;20476;-84
2022/09/19 01:44:02;;;;;;;1.40;1.20;;;12.60;64.40;;;;;;5017043;28;20969;-84
2022/09/19 01:46:40;;;;;;;1.33;1.23;;;12.70;64.70;;;;;;5017792;28;20452;-85
2022/09/19 01:49:17;;;;;;;1.40;1.27;;;12.70;64.20;;;;;;5049955;28;20749;-85
2022/09/19 01:51:48;;;;;;;1.93;1.10;;;12.70;64.60;;;;;;5030702;28;20875;-85
2022/09/19 01:54:32;;;;;;;2.70;1.10;;;12.60;65.20;;;;;;5042518;28;20455;-85
2022/09/19 01:57:14;;;;;;;1.37;1.23;;;12.40;66.00;;;;;;5015693;28;20460;-87
2022/09/19 02:00:06;;;;;;;2.20;1.47;;;12.40;66.00;;;;;;5006623;28;20449;-86
2022/09/19 02:02:56;;;;;;;3.63;1.40;;;12.50;65.90;;;;;;5018654;28;20484;-85
2022/09/19 02:05:35;;;;;;;3.23;1.40;;;12.30;66.40;;;;;;5049762;28;20450;-85
2022/09/19 02:08:09;;;;;;;2.30;1.50;;;12.40;66.30;;;;;;5049942;28;20536;-84
2022/09/19 02:10:40;;;;;;;2.50;1.43;;;12.60;66.20;;;;;;5032095;28;22150;-84
2022/09/19 02:13:10;;;;;;;2.03;1.73;;;12.60;66.20;;;;;;5032238;28;20973;-85
2022/09/19 02:15:50;;;;;;;2.20;1.50;;;12.80;65.30;;;;;;5030812;28;20991;-86
2022/09/19 02:18:30;;;;;;;6.03;2.37;;;12.70;65.10;;;;;;5031116;28;20452;-85
2022/09/19 02:21:03;;;;;;;2.40;1.53;;;12.80;65.30;;;;;;5031225;28;21254;-85
2022/09/19 02:23:34;;;;;;;3.90;2.20;;;13.00;64.80;;;;;;5017329;28;20437;-84
2022/09/19 02:26:05;;;;;;;3.37;1.67;;;13.10;64.30;;;;;;5016195;28;20540;-85
2022/09/19 02:28:38;;;;;;;6.53;1.97;;;13.20;64.40;;;;;;5030891;28;20456;-84
2022/09/19 02:31:11;;;;;;;1.67;1.57;;;13.20;64.50;;;;;;5014994;28;20461;-85
2022/09/19 02:33:43;;;;;;;2.40;1.87;;;13.20;64.50;;;;;;5023661;28;20536;-86
2022/09/19 02:36:16;;;;;;;3.20;2.47;;;13.30;64.40;;;;;;5040854;28;20541;-84
2022/09/19 02:38:52;;;;;;;7.43;2.20;;;13.40;64.30;;;;;;5052043;28;20816;-84
2022/09/19 02:41:36;;;;;;;7.90;2.50;;;13.50;63.50;;;;;;5017424;28;20510;-86
2022/09/19 02:44:19;;;;;;;4.07;1.90;;;13.40;63.80;;;;;;5034393;28;20456;-84
2022/09/19 02:46:57;;;;;;;2.10;1.53;;;13.50;63.90;;;;;;5044087;28;20955;-84
2022/09/19 02:49:36;;;;;;;1.73;1.63;;;13.60;63.90;;;;;;5034998;28;20830;-87
2022/09/19 02:52:07;;;;;;;2.53;1.60;;;13.60;63.50;;;;;;5029723;28;20473;-86
2022/09/19 02:54:38;;;;;;;8.07;2.10;;;13.60;63.60;;;;;;5007696;28;20835;-84
2022/09/19 02:57:10;;;;;;;2.80;2.20;;;13.40;63.90;;;;;;5037189;28;20464;-87
2022/09/19 02:59:40;;;;;;;5.33;2.13;;;13.40;63.70;;;;;;5050171;28;20569;-84
2022/09/19 03:02:16;;;;;;;3.13;1.97;;;13.40;64.10;;;;;;5052543;28;20465;-85
2022/09/19 03:04:47;;;;;;;2.07;1.80;;;13.20;63.90;;;;;;5034357;28;20564;-85
2022/09/19 03:07:17;;;;;;;2.87;1.70;;;13.10;65.00;;;;;;5040148;28;21143;-86
2022/09/19 03:09:57;;;;;;;2.77;2.07;;;13.20;64.90;;;;;;5015870;28;20823;-85
2022/09/19 03:12:31;;;;;;;3.20;2.30;;;13.30;65.00;;;;;;5019059;28;21004;-85
2022/09/19 03:15:00;;;;;;;8.70;2.93;;;13.30;64.60;;;;;;5049541;28;20449;-85
2022/09/19 03:17:38;;;;;;;4.90;2.53;;;13.30;64.30;;;;;;5034687;28;20533;-84
2022/09/19 03:20:11;;;;;;;5.47;2.73;;;13.40;64.70;;;;;;5018479;28;20519;-86
2022/09/19 03:22:42;;;;;;;2.27;2.07;;;13.50;64.40;;;;;;5019166;28;20473;-86
2022/09/19 03:25:11;;;;;;;2.90;1.80;;;13.60;63.90;;;;;;5017334;28;20453;-85
2022/09/19 03:27:38;;;;;;;6.13;3.03;;;13.50;63.80;;;;;;5017163;28;21005;-84
2022/09/19 03:30:07;;;;;;;8.57;2.70;;;13.50;64.20;;;;;;5039608;28;20468;-86
2022/09/19 03:32:37;;;;;;;4.63;2.30;;;13.20;64.30;;;;;;5025912;28;20481;-84
2022/09/19 03:35:06;;;;;;;7.93;3.00;;;13.40;64.50;;;;;;5036004;28;20452;-86
2022/09/19 03:37:33;;;;;;;5.93;2.47;;;13.40;64.70;;;;;;5005816;28;21287;-85
2022/09/19 03:40:02;;;;;;;2.50;2.20;;;13.40;64.60;;;;;;5020501;28;20448;-84
2022/09/19 03:42:31;;;;;;;6.80;2.77;;;13.40;64.00;;;;;;5018149;28;21259;-85
2022/09/19 03:44:58;;;;;;;3.07;2.77;;;13.40;64.80;;;;;;5053692;28;20449;-85
2022/09/19 03:47:25;;;;;;;3.80;2.40;;;13.50;64.50;;;;;;5032391;28;20527;-85
2022/09/19 03:49:54;;;;;;;3.40;2.33;;;13.40;64.70;;;;;;5033576;28;20503;-85
2022/09/19 03:52:21;;;;;;;9.73;3.30;;;13.40;65.20;;;;;;5011979;28;20550;-85
2022/09/19 03:54:48;;;;;;;6.77;2.40;;;13.30;64.90;;;;;;5031340;28;20464;-84
2022/09/19 03:57:15;;;;;;;6.97;2.67;;;13.20;65.00;;;;;;5044622;28;20890;-84
2022/09/19 03:59:42;;;;;;;8.30;2.80;;;13.20;64.90;;;;;;5001002;28;20457;-86
2022/09/19 04:02:11;;;;;;;5.73;2.07;;;13.20;64.60;;;;;;5009156;28;20537;-85
2022/09/19 04:04:39;;;;;;;10.43;2.90;;;13.10;65.10;;;;;;5028774;28;20456;-85
2022/09/19 04:07:08;;;;;;;6.73;2.37;;;13.10;65.70;;;;;;5035806;28;20515;-85
2022/09/19 04:09:37;;;;;;;3.80;2.57;;;13.30;64.70;;;;;;5030565;28;20547;-85
2022/09/19 04:12:06;;;;;;;10.33;2.77;;;13.40;65.20;;;;;;5025621;28;20470;-86
2022/09/19 04:14:35;;;;;;;3.10;2.27;;;13.40;64.70;;;;;;5018426;28;21449;-85
2022/09/19 04:17:03;;;;;;;6.10;2.70;;;13.60;64.30;;;;;;5032218;28;20463;-86
2022/09/19 04:19:30;;;;;;;7.70;2.87;;;13.50;64.30;;;;;;5040688;28;20972;-86
2022/09/19 04:22:11;;;;;;;9.43;2.43;;;13.50;64.50;;;;;;5042316;28;20511;-87
2022/09/19 04:24:42;;;;;;;6.67;2.80;;;13.50;64.50;;;;;;5018441;28;20481;-84
2022/09/19 04:27:25;;;;;;;6.97;2.83;;;13.50;64.30;;;;;;5035537;28;20968;-86
2022/09/19 04:29:52;;;;;;;4.27;2.47;;;13.60;64.10;;;;;;5007851;28;20508;-85
2022/09/19 04:32:20;;;;;;;5.93;2.73;;;13.40;63.60;;;;;;5034807;28;21174;-85
2022/09/19 04:34:55;;;;;;;8.03;2.40;;;13.50;64.10;;;;;;5015331;28;20464;-85
2022/09/19 04:37:23;;;;;;;5.23;2.60;;;13.60;63.80;;;;;;5034231;28;20441;-85
2022/09/19 04:39:59;;;;;;;4.73;2.73;;;13.40;64.40;;;;;;5032211;28;20951;-86
2022/09/19 04:42:27;;;;;;;4.93;2.80;;;13.50;64.40;;;;;;5034549;28;20529;-84
2022/09/19 04:44:56;;;;;;;8.83;3.20;;;13.60;63.60;;;;;;5035887;28;20802;-85
2022/09/19 04:47:49;;;;;;;4.43;2.70;;;13.60;63.80;;;;;;5050136;28;20477;-85
2022/09/19 04:50:17;;;;;;;5.43;3.10;;;13.50;63.40;;;;;;5042575;28;20445;-85
2022/09/19 04:52:57;;;;;;;7.83;2.83;;;13.60;63.70;;;;;;5052209;28;20459;-86
2022/09/19 04:55:25;;;;;;;3.30;3.00;;;13.70;63.40;;;;;;5031041;28;20461;-85
2022/09/19 04:57:54;;;;;;;9.87;3.07;;;13.90;63.30;;;;;;5043551;28;20963;-85
2022/09/19 05:00:37;;;;;;;5.60;2.37;;;14.10;63.30;;;;;;5038631;28;20984;-85
2022/09/19 05:03:06;;;;;;;8.70;3.33;;;14.00;62.40;;;;;;5032484;28;20479;-85
2022/09/19 05:05:33;;;;;;;4.03;2.57;;;13.80;62.80;;;;;;5030834;28;20446;-85
2022/09/19 05:08:03;;;;;;;7.17;3.13;;;13.80;63.00;;;;;;5031111;28;20453;-85
2022/09/19 05:10:32;;;;;;;6.13;3.47;;;13.90;63.30;;;;;;5006760;28;20480;-86
2022/09/19 05:12:59;;;;;;;7.30;3.00;;;14.00;63.00;;;;;;5024156;28;20452;-85
2022/09/19 05:15:26;;;;;;;5.33;3.77;;;13.90;62.60;;;;;;5031376;28;20465;-85
2022/09/19 05:17:55;;;;;;;8.40;3.17;;;13.80;63.20;;;;;;5031940;28;20462;-85
2022/09/19 05:20:25;;;;;;;6.63;3.30;;;13.70;63.10;;;;;;5023640;28;20453;-86
2022/09/19 05:22:58;;;;;;;6.60;3.13;;;13.80;63.50;;;;;;5031625;28;20456;-85
2022/09/19 05:25:28;;;;;;;9.27;3.30;;;13.80;63.60;;;;;;5031335;28;20511;-85
2022/09/19 05:27:58;;;;;;;4.27;3.00;;;13.90;63.10;;;;;;5032401;28;20442;-84
2022/09/19 05:30:26;;;;;;;6.10;3.13;;;13.90;63.00;;;;;;5023741;28;20844;-83
2022/09/19 05:32:54;;;;;;;6.57;3.27;;;14.00;63.20;;;;;;5021513;28;20445;-84
2022/09/19 05:35:32;;;;;;;7.07;2.83;;;14.20;62.80;;;;;;5019889;28;20453;-85
2022/09/19 05:38:04;;;;;;;9.00;2.87;;;14.20;62.10;;;;;;5031204;28;20456;-85
2022/09/19 05:40:56;;;;;;;5.60;3.40;;;14.30;62.50;;;;;;5041375;28;20559;-85
2022/09/19 05:43:39;;;;;;;5.50;2.73;;;14.30;61.70;;;;;;5000597;28;20470;-85
2022/09/19 05:46:08;;;;;;;10.03;3.60;;;14.50;61.90;;;;;;5040657;28;20914;-87
2022/09/19 05:48:37;;;;;;;3.40;2.83;;;14.50;61.30;;;;;;5046419;28;20456;-83
2022/09/19 05:51:06;;;;;;;6.37;3.80;;;14.50;61.00;;;;;;5017962;28;20935;-85
2022/09/19 05:56:34;;;;;;;5.33;3.00;;;14.60;61.70;;;;;;5030235;28;20453;-85
2022/09/19 05:59:04;;;;;;;7.93;3.30;;;14.60;61.30;;;;;;5015298;28;20457;-85
2022/09/19 06:01:32;;;;;;;6.87;2.53;;;14.60;61.20;;;;;;5033826;28;20831;-85
2022/09/19 06:04:01;;;;;;;8.83;3.00;;;14.40;60.60;;;;;;5040472;28;20456;-85
2022/09/19 06:06:29;;;;;;;5.93;3.37;;;14.30;61.90;;;;;;5022711;28;20550;-86
2022/09/19 06:08:58;;;;;;;7.67;2.77;;;14.10;62.80;;;;;;5031899;28;20456;-85
2022/09/19 06:11:32;;;;;;;8.63;3.10;;;14.20;62.70;;;;;;5032838;28;20473;-86
2022/09/19 06:14:17;;;;;;;6.20;3.00;;;14.30;62.40;;;;;;5050890;28;20464;-86
2022/09/19 06:16:46;;;;;;;7.10;3.50;;;14.50;62.40;;;;;;5019686;28;20537;-85
2022/09/19 06:19:32;;;;;;;4.50;2.97;;;14.40;62.00;;;;;;5052174;28;20445;-85
2022/09/19 06:22:05;;;;;;;7.10;3.00;;;14.40;61.70;;;;;;5027012;28;20572;-85
2022/09/19 06:24:32;;;;;;;8.13;2.83;;;14.50;62.10;;;;;;5025811;28;20461;-86
2022/09/19 06:27:01;;;;;;;7.53;3.30;;;14.60;62.20;;;;;;5036721;28;20521;-86
2022/09/19 06:29:30;;;;;;;3.70;2.93;;;14.70;62.20;;;;;;5016747;28;21129;-86
2022/09/19 06:32:38;;;;;;;5.47;2.97;;;14.60;62.10;;;;;;4999929;28;20625;-85
2022/09/19 06:35:18;;;;;;;5.37;3.07;;;14.50;62.20;;;;;;4965662;28;20466;-84
2022/09/19 06:37:45;;;;;;;14.50;3.07;;;14.60;62.20;;;;;;5019755;28;20452;-85
2022/09/19 06:40:13;;;;;;;7.57;3.70;;;14.60;62.10;;;;;;5026951;28;20461;-85
2022/09/19 06:42:46;;;;;;;5.97;3.53;;;14.60;62.30;;;;;;5052753;28;20984;-85
2022/09/19 06:45:27;;;;;;;4.60;3.37;;;14.50;62.40;;;;;;5020961;28;20441;-86
2022/09/19 06:48:14;;;;;;;7.40;3.67;;;14.60;62.00;;;;;;5037333;28;20453;-85
2022/09/19 06:50:50;;;;;;;7.43;2.83;;;14.40;62.50;;;;;;5035155;28;20469;-86
2022/09/19 06:53:19;;;;;;;7.23;3.13;;;14.40;62.50;;;;;;5015616;28;20830;-85
2022/09/19 06:55:49;;;;;;;8.10;2.80;;;14.50;62.50;;;;;;5016647;28;20468;-87
2022/09/19 06:58:23;;;;;;;6.53;3.30;;;14.50;62.20;;;;;;5017282;28;20445;-83
2022/09/19 07:00:53;;;;;;;7.90;3.17;;;14.80;61.90;;;;;;5004614;28;20469;-86
2022/09/19 07:03:20;;;;;;;8.80;3.40;;;14.80;61.50;;;;;;5032189;28;20465;-86
2022/09/19 07:05:59;;;;;;;6.47;2.43;;;14.80;62.00;;;;;;5025010;28;20827;-86
2022/09/19 07:08:32;;;;;;;6.57;3.47;;;14.90;62.00;;;;;;5050163;28;20452;-86
2022/09/19 07:11:02;;;;;;;9.20;2.90;;;15.10;61.90;;;;;;5018716;28;20572;-86
2022/09/19 07:13:30;;;;;;;7.77;3.90;;;15.30;62.00;;;;;;5018675;28;20986;-86
2022/09/19 07:16:02;;;;;;;8.50;3.37;;;15.30;60.70;;;;;;5024732;28;20456;-87
2022/09/19 07:18:29;;;;;;;7.47;3.43;;;15.40;60.90;;;;;;5008366;28;20771;-88
2022/09/19 07:21:00;;;;;;;9.17;3.93;;;15.20;61.10;;;;;;5027405;28;20468;-87
2022/09/19 07:23:32;;;;;;;4.47;2.70;;;15.10;60.80;;;;;;5033214;28;20493;-86
2022/09/19 07:26:22;;;;;;;3.97;2.67;;;15.00;62.00;;;;;;5022418;28;20448;-84
2022/09/19 07:28:50;;;;;;;4.50;2.73;;;15.00;62.20;;;;;;5027409;28;20476;-84
2022/09/19 07:31:19;;;;;;;4.53;2.70;;;14.80;61.60;;;;;;5031660;28;20480;-87
2022/09/19 07:33:47;;;;;;;4.20;2.73;;;14.80;63.10;;;;;;5026353;28;20456;-88
2022/09/19 07:36:14;;;;;;;11.03;3.03;;;14.80;63.40;;;;;;5037675;28;20459;-88
2022/09/19 07:38:43;;;;;;;8.63;4.00;;;14.90;63.40;;;;;;5017529;28;20468;-86
2022/09/19 07:41:30;;;;;;;8.80;3.50;;;14.80;62.60;;;;;;5034368;28;20477;-87
2022/09/19 07:44:30;;;;;;;8.50;3.60;;;14.90;62.20;;;;;;5033860;28;20544;-88
2022/09/19 07:47:28;;;;;;;9.70;3.23;;;14.70;62.70;;;;;;5043324;28;20968;-87
2022/09/19 07:50:18;;;;;;;8.40;3.70;;;14.90;62.60;;;;;;5009707;28;20453;-86
2022/09/19 07:52:59;;;;;;;8.93;3.27;;;14.80;62.60;;;;;;5025884;28;20445;-86
2022/09/19 07:55:27;;;;;;;5.20;3.73;;;14.90;62.40;;;;;;5030046;28;20446;-87
2022/09/19 07:57:56;;;;;;;10.17;3.43;;;15.10;62.60;;;;;;5032291;28;20445;-86
2022/09/19 08:00:34;;;;;;;11.03;3.93;;;14.80;62.10;;;;;;5017035;28;20959;-85
2022/09/19 08:03:05;;;;;;;8.77;4.10;;;14.90;62.50;;;;;;5025863;28;20484;-86
2022/09/19 08:05:35;;;;;;;7.00;3.20;;;15.00;61.60;;;;;;5018310;28;20547;-87
2022/09/19 08:08:02;;;;;;;10.63;3.33;;;14.80;61.50;;;;;;5020440;28;20575;-87
2022/09/19 08:10:32;;;;;;;7.37;3.57;;;14.70;63.90;;;;;;5033020;28;20505;-87
2022/09/19 08:13:00;;;;;;;6.40;3.17;;;14.80;63.50;;;;;;5043383;28;20986;-87
2022/09/19 08:15:27;;;;;;;6.43;3.67;;;14.80;62.60;;;;;;5041829;28;20449;-88
2022/09/19 08:17:58;;;;;;;7.13;3.43;;;14.90;63.10;;;;;;5011788;28;20460;-86
2022/09/19 08:20:29;;;;;;;6.07;4.07;;;14.90;62.70;;;;;;5024107;28;20454;-86
2022/09/19 08:22:57;;;;;;;9.93;4.27;;;14.80;63.20;;;;;;5002826;28;21144;-87
2022/09/19 08:25:24;;;;;;;7.00;2.90;;;14.90;62.40;;;;;;5022941;28;20464;-86
2022/09/19 08:27:52;;;;;;;8.47;3.40;;;15.00;62.90;;;;;;5052039;28;20510;-88
2022/09/19 08:30:19;;;;;;;6.30;3.37;;;15.10;62.30;;;;;;5026969;28;20461;-87
2022/09/19 08:32:48;;;;;;;3.93;3.43;;;15.20;62.40;;;;;;5042548;28;20512;-85
2022/09/19 08:35:16;;;;;;;8.33;4.17;;;15.20;61.20;;;;;;5032422;28;20462;-87
2022/09/19 08:37:45;;;;;;;3.83;3.47;;;15.30;60.80;;;;;;5034662;28;20449;-87
2022/09/19 08:40:19;;;;;;;8.70;3.43;;;15.20;61.80;;;;;;5025919;28;21022;-86
2022/09/19 08:42:58;;;;;;;4.27;3.37;;;15.20;61.00;;;;;;5009853;28;20987;-86
2022/09/19 08:45:40;;;;;;;3.30;2.80;;;15.10;61.30;;;;;;5030541;28;20441;-88
2022/09/19 08:48:18;;;;;;;2.80;2.60;;;15.20;60.40;;;;;;5021170;28;20817;-87
2022/09/19 08:50:52;;;;;;;10.83;3.40;;;15.30;60.20;;;;;;5033444;28;20987;-87
2022/09/19 08:53:27;;;;;;;6.73;3.10;;;15.40;60.20;;;;;;5033230;28;20936;-88
2022/09/19 08:55:56;;;;;;;7.23;3.60;;;15.50;59.30;;;;;;5018482;28;20952;-87
2022/09/19 08:58:25;;;;;;;7.93;2.80;;;15.50;61.00;;;;;;5022893;28;20924;-87
2022/09/19 09:01:10;;;;;;;7.33;3.03;;;15.50;59.30;;;;;;5033994;28;20472;-87
2022/09/19 09:04:08;;;;;;;7.43;3.07;;;15.50;58.80;;;;;;5031546;28;20543;-85
2022/09/19 09:06:47;;;;;;;6.83;3.17;;;15.70;59.50;;;;;;5017837;28;20463;-88
2022/09/19 09:09:26;;;;;;;3.50;2.40;;;15.50;58.50;;;;;;5032019;28;20444;-87
2022/09/19 09:12:02;;;;;;;9.00;3.07;;;15.50;58.90;;;;;;5033235;28;20500;-87
2022/09/19 09:14:47;;;;;;;3.50;2.77;;;15.60;59.60;;;;;;5039728;28;20498;-86
2022/09/19 09:17:26;;;;;;;4.17;3.20;;;15.60;58.80;;;;;;5034449;28;20523;-86
2022/09/19 09:20:18;;;;;;;5.13;2.80;;;15.70;58.90;;;;;;5029627;28;20453;-86
2022/09/19 09:22:49;;;;;;;3.33;2.50;;;15.90;59.10;;;;;;5018073;28;20530;-85
2022/09/19 09:26:01;;;;;;;10.97;2.83;;;16.10;58.60;;;;;;5015074;28;20901;-86
2022/09/19 09:28:42;;;;;;;4.33;2.23;;;16.30;58.40;;;;;;5023272;28;20641;-86
2022/09/19 09:31:28;;;;;;;4.43;3.07;;;16.30;58.30;;;;;;5027674;28;20476;-87
2022/09/19 09:34:07;;;;;;;7.93;2.67;;;16.30;57.50;;;;;;5016514;28;20449;-87
2022/09/19 09:36:39;;;;;;;4.83;3.30;;;16.30;57.90;;;;;;5040143;28;20464;-87
2022/09/19 09:39:15;;;;;;;3.50;2.30;;;16.30;57.60;;;;;;5017128;28;20468;-87
2022/09/19 09:41:47;;;;;;;4.03;2.50;;;16.30;56.90;;;;;;5026329;28;22650;-88
2022/09/19 09:44:44;;;;;;;4.30;2.50;;;16.10;56.90;;;;;;5015621;28;20564;-88
2022/09/19 09:47:26;;;;;;;4.10;2.53;;;16.20;57.70;;;;;;5029981;28;20449;-87
2022/09/19 09:50:00;;;;;;;4.40;2.37;;;16.40;58.00;;;;;;5024431;28;20443;-88
2022/09/19 09:52:36;;;;;;;3.77;2.77;;;16.50;57.00;;;;;;5021698;28;20563;-87
2022/09/19 09:58:17;;;;;;;4.60;2.60;;;16.40;55.90;;;;;;5029523;28;20457;-88
2022/09/19 10:03:49;;;;;;;2.10;1.90;;;16.80;55.90;;;;;;5017698;28;20896;-88
2022/09/19 10:06:35;;;;;;;6.90;3.43;;;16.50;55.60;;;;;;5022929;28;20972;-88
2022/09/19 10:09:08;;;;;;;8.67;3.60;;;16.40;56.90;;;;;;5012569;28;20465;-88
2022/09/19 10:11:42;;;;;;;6.87;2.60;;;16.50;57.10;;;;;;5024622;28;20571;-89
2022/09/19 10:14:19;;;;;;;9.60;4.77;;;16.50;55.60;;;;;;5021486;28;20503;-90
2022/09/19 10:16:52;;;;;;;5.80;4.03;;;16.40;56.70;;;;;;5037255;28;20463;-88
2022/09/19 10:19:27;;;;;;;3.37;2.37;;;16.60;56.60;;;;;;5022216;28;20564;-88
2022/09/19 10:21:56;;;;;;;8.70;2.77;;;16.70;57.00;;;;;;5008158;28;20472;-87
2022/09/19 10:24:50;;;;;;;8.20;2.93;;;16.90;56.50;;;;;;5015072;28;21055;-88
2022/09/19 10:27:23;;;;;;;6.30;2.83;;;17.10;57.60;;;;;;5045651;28;20448;-88
2022/09/19 10:29:59;;;;;;;10.90;3.27;;;17.50;56.40;;;;;;5027338;28;21069;-88
2022/09/19 10:32:30;;;;;;;4.70;2.97;;;17.70;55.60;;;;;;5028241;28;20518;-88
2022/09/19 10:35:29;;;;;;;2.87;2.30;;;17.80;55.70;;;;;;5023630;28;20446;-88
2022/09/19 10:38:02;;;;;;;4.47;2.30;;;17.90;55.80;;;;;;5046028;28;20900;-88
2022/09/19 10:40:31;;;;;;;4.77;2.40;;;17.80;54.80;;;;;;5035798;28;21144;-87
2022/09/19 10:42:59;;;;;;;3.30;2.33;;;17.80;55.50;;;;;;5022675;28;20534;-88
2022/09/19 10:45:34;;;;;;;9.73;3.07;;;17.80;54.80;;;;;;5036897;28;21129;-88
2022/09/19 10:48:11;;;;;;;3.03;2.80;;;17.40;56.60;;;;;;5037663;28;20481;-88
2022/09/19 10:50:43;;;;;;;3.97;2.80;;;17.60;57.00;;;;;;5043628;28;20460;-87
2022/09/19 10:53:19;;;;;;;4.00;2.63;;;17.50;57.20;;;;;;5020790;28;20450;-88
2022/09/19 10:55:47;;;;;;;4.67;2.40;;;17.40;57.90;;;;;;5012004;28;20464;-85
2022/09/19 10:58:22;;;;;;;5.10;2.97;;;17.40;58.60;;;;;;5029119;28;20537;-87
2022/09/19 11:01:02;;;;;;;6.40;2.80;;;17.40;59.00;;;;;;5013319;28;21437;-89
2022/09/19 11:03:39;;;;;;;4.30;3.20;;;17.30;59.10;;;;;;5008903;28;20469;-88
2022/09/19 11:06:12;;;;;;;6.37;3.50;;;17.20;59.70;;;;;;5035731;28;21360;-87
2022/09/19 11:08:46;;;;;;;3.90;2.70;;;17.50;59.70;;;;;;5043411;28;20964;-90
2022/09/19 11:11:36;;;;;;;6.50;2.60;;;17.50;60.00;;;;;;5037144;28;20848;-88
2022/09/19 11:14:18;;;;;;;2.90;2.60;;;17.40;58.90;;;;;;5022327;28;20445;-88
2022/09/19 11:17:08;;;;;;;6.40;2.83;;;17.40;58.90;;;;;;5008289;28;20438;-88
2022/09/19 11:19:48;;;;;;;4.03;2.37;;;17.60;58.60;;;;;;5054110;28;20453;-88
2022/09/19 11:22:31;;;;;;;3.63;2.50;;;17.90;57.90;;;;;;5025776;28;20469;-88
2022/09/19 11:25:08;;;;;;;5.17;2.80;;;18.10;57.50;;;;;;5043224;28;20462;-88
2022/09/19 11:27:45;;;;;;;4.00;2.80;;;18.10;56.60;;;;;;5051900;28;20476;-88
2022/09/19 11:30:18;;;;;;;5.50;3.30;;;18.20;57.00;;;;;;5042131;28;20456;-86
2022/09/19 11:33:04;;;;;;;4.17;2.70;;;18.50;56.00;;;;;;5044123;28;20834;-88
2022/09/19 11:36:08;;;;;;;4.63;3.10;;;18.60;56.00;;;;;;4998704;28;20449;-88
2022/09/19 11:38:47;;;;;;;5.50;3.00;;;18.30;55.20;;;;;;5026166;28;20453;-88
2022/09/19 11:41:29;;;;;;;5.17;3.37;;;18.10;56.10;;;;;;5034502;28;20480;-88
2022/09/19 11:44:15;;;;;;;3.13;2.80;;;18.20;55.10;;;;;;5027291;28;20969;-88
2022/09/19 11:46:55;;;;;;;5.40;3.17;;;18.20;55.40;;;;;;5034827;28;20493;-87
2022/09/19 11:49:40;;;;;;;4.60;2.37;;;18.10;54.30;;;;;;5009001;28;20540;-85
2022/09/19 11:52:14;;;;;;;2.80;2.60;;;18.00;55.60;;;;;;5036974;28;21088;-88
2022/09/19 11:54:58;;;;;;;3.33;2.73;;;17.80;55.80;;;;;;5018588;28;20456;-88
2022/09/19 11:57:39;;;;;;;4.90;3.57;;;17.50;57.40;;;;;;5027008;28;21036;-87
2022/09/19 12:00:15;;;;;;;7.50;3.13;;;17.60;57.80;;;;;;5033085;28;20449;-87
2022/09/19 12:03:26;;;;;;;5.07;2.80;;;17.80;57.80;;;;;;5034760;28;20461;-88
2022/09/19 12:06:24;;;;;;;6.00;5.20;;;17.90;57.30;;;;;;5025473;28;20816;-88
2022/09/19 12:09:12;;;;;;;5.17;3.60;;;18.20;58.20;;;;;;5033565;28;20448;-86
2022/09/19 12:11:45;;;;;;;3.20;2.90;;;18.30;57.50;;;;;;5025990;28;20472;-88
2022/09/19 12:14:19;;;;;;;5.90;2.70;;;18.40;56.80;;;;;;5012877;28;20903;-88
2022/09/19 12:16:51;;;;;;;7.70;4.20;;;18.50;56.00;;;;;;5042353;28;20504;-88
2022/09/19 12:19:21;;;;;;;4.60;2.97;;;18.30;55.40;;;;;;5025620;28;20955;-87
2022/09/19 12:21:52;;;;;;;6.80;3.20;;;18.30;57.40;;;;;;5026292;28;20476;-87
2022/09/19 12:27:16;;;;;;;5.63;2.90;;;18.70;56.90;;;;;;5021652;28;20446;-88
2022/09/19 12:29:50;;;;;;;4.73;2.97;;;18.80;56.30;;;;;;5012118;28;21282;-88
2022/09/19 12:32:26;;;;;;;5.30;2.80;;;18.90;55.90;;;;;;5009438;28;20510;-86
2022/09/19 12:35:01;;;;;;;5.70;2.60;;;18.80;55.60;;;;;;5051535;28;20913;-87
2022/09/19 12:37:39;;;;;;;3.73;2.97;;;18.90;55.80;;;;;;5009701;28;20529;-87
2022/09/19 12:40:17;;;;;;;4.10;3.17;;;19.10;55.10;;;;;;5036140;28;20456;-90
2022/09/19 12:42:49;;;;;;;6.67;3.00;;;19.20;55.50;;;;;;5018652;28;20482;-88
2022/09/19 12:45:23;;;;;;;7.23;3.00;;;19.20;55.40;;;;;;5037472;28;20484;-87
2022/09/19 12:48:14;;;;;;;3.30;2.90;;;18.70;56.70;;;;;;5027103;28;20492;-88
2022/09/19 12:50:56;;;;;;;6.90;2.77;;;18.80;57.50;;;;;;5018322;28;20964;-88
2022/09/19 12:53:32;;;;;;;8.93;2.93;;;19.00;56.60;;;;;;5006603;28;20446;-87
2022/09/19 12:56:06;;;;;;;5.47;3.23;;;19.10;56.90;;;;;;5052206;28;20449;-87
2022/09/19 12:58:40;;;;;;;4.20;2.90;;;19.30;56.60;;;;;;5039461;28;20618;-89
2022/09/19 13:01:19;;;;;;;5.90;2.80;;;19.50;55.30;;;;;;5042968;28;20484;-88
2022/09/19 13:03:52;;;;;;;8.10;3.57;;;19.80;55.30;;;;;;5035839;28;20963;-87
2022/09/19 13:06:24;;;;;;;4.00;2.53;;;19.50;55.20;;;;;;5035156;28;20451;-87
2022/09/19 13:09:02;;;;;;;5.40;2.83;;;19.70;54.70;;;;;;5015870;28;20460;-86
2022/09/19 13:11:36;;;;;;;5.20;2.90;;;19.80;53.00;;;;;;5035217;28;20998;-88
2022/09/19 13:14:11;;;;;;;6.80;2.60;;;19.70;53.30;;;;;;5036323;28;20444;-86
2022/09/19 13:23:29;;;;;;;9.13;2.90;;;20.00;53.70;;;;;;5048278;28;20453;-87
2022/09/19 13:25:12;;;;;;;3.00;2.20;;;20.30;52.00;;;;;;5020053;28;20556;-87
2022/09/19 13:27:39;;;;;;;3.10;2.00;;;20.20;52.60;;;;;;5036254;28;20954;-87
2022/09/19 13:30:48;;;;;;;7.73;2.53;;;20.30;51.30;;;;;;5030804;28;20452;-88
2022/09/19 13:33:22;;;;;;;4.57;2.50;;;20.50;51.30;;;;;;5019282;28;20979;-89
2022/09/19 13:35:51;;;;;;;7.10;2.20;;;20.70;50.70;;;;;;5050569;28;20456;-88
2022/09/19 13:38:25;;;;;;;4.70;2.37;;;20.70;49.70;;;;;;5033935;28;21008;-88
2022/09/19 13:41:03;;;;;;;6.13;2.17;;;20.90;49.80;;;;;;5052385;28;20479;-87
2022/09/19 13:43:45;;;;;;;3.20;2.00;;;21.20;49.10;;;;;;5049739;28;20545;-87
2022/09/19 13:46:17;;;;;;;2.37;2.17;;;21.50;48.70;;;;;;5050826;28;20457;-88